createdAt,value
2023-04-17T00:01:24.287Z,28.40
2023-04-17T00:03:52.550Z,28.10
2023-04-17T00:06:19.261Z,29.50
2023-04-17T00:08:46.150Z,29.05
2023-04-17T00:11:12.663Z,28.80
2023-04-17T00:13:39.144Z,29.08
2023-04-17T00:16:06.038Z,28.15
2023-04-17T00:18:32.452Z,30.15
2023-04-17T00:20:58.894Z,26.70
2023-04-17T00:23:26.070Z,29.05
2023-04-17T00:25:52.458Z,30.25
2023-04-17T00:28:19.355Z,28.77
2023-04-17T00:30:45.846Z,29.90
2023-04-17T00:33:12.336Z,29.95
2023-04-17T00:35:38.883Z,29.40
2023-04-17T00:38:05.367Z,27.90
2023-04-17T00:40:31.833Z,29.80
2023-04-17T00:43:02.657Z,29.77
2023-04-17T00:45:30.320Z,29.13
2023-04-17T00:47:59.405Z,28.40
2023-04-17T00:50:29.580Z,30.40
2023-04-17T00:52:57.205Z,29.90
2023-04-17T00:55:24.023Z,30.10
2023-04-17T00:57:50.853Z,31.38
2023-04-17T01:00:18.224Z,31.60
2023-04-17T01:02:45.899Z,31.63
2023-04-17T01:05:12.779Z,31.38
2023-04-17T01:07:40.175Z,32.58
2023-04-17T01:10:07.664Z,31.85
2023-04-17T01:12:34.117Z,30.67
2023-04-17T01:15:00.801Z,30.45
2023-04-17T01:17:27.718Z,31.67
2023-04-17T01:19:55.512Z,31.88
2023-04-17T01:22:21.969Z,32.20
2023-04-17T01:24:49.280Z,32.85
2023-04-17T01:27:15.752Z,32.10
2023-04-17T01:29:43.161Z,31.88
2023-04-17T01:32:10.267Z,32.60
2023-04-17T01:34:37.713Z,31.90
2023-04-17T01:37:04.444Z,31.55
2023-04-17T01:39:31.014Z,31.90
2023-04-17T01:41:57.454Z,31.70
2023-04-17T01:44:23.925Z,30.38
2023-04-17T01:46:51.398Z,29.63
2023-04-17T01:49:17.878Z,31.50
2023-04-17T01:51:44.368Z,30.35
2023-04-17T01:54:10.970Z,29.67
2023-04-17T01:56:37.492Z,29.00
2023-04-17T01:59:03.920Z,29.15
2023-04-17T02:01:31.099Z,29.70
2023-04-17T02:03:57.799Z,29.17
2023-04-17T02:06:24.881Z,29.65
2023-04-17T02:08:51.335Z,27.67
2023-04-17T02:11:18.331Z,29.67
2023-04-17T02:13:44.795Z,26.48
2023-04-17T02:16:12.541Z,26.85
2023-04-17T02:18:40.771Z,25.92
2023-04-17T02:21:07.327Z,25.60
2023-04-17T02:23:33.779Z,25.35
2023-04-17T02:26:00.306Z,25.50
2023-04-17T02:28:26.886Z,23.55
2023-04-17T02:30:53.418Z,25.17
2023-04-17T02:33:19.849Z,23.48
2023-04-17T02:35:46.553Z,24.25
2023-04-17T02:38:13.180Z,23.88
2023-04-17T02:40:39.669Z,22.92
2023-04-17T02:43:06.103Z,22.80
2023-04-17T02:45:32.525Z,22.42
2023-04-17T02:47:58.990Z,22.85
2023-04-17T02:50:25.655Z,23.85
2023-04-17T02:52:52.142Z,22.77
2023-04-17T02:55:18.768Z,24.50
2023-04-17T02:57:46.163Z,25.00
2023-04-17T03:00:14.514Z,24.00
2023-04-17T03:02:41.561Z,22.98
2023-04-17T03:05:09.204Z,22.98
2023-04-17T03:07:35.790Z,23.70
2023-04-17T03:10:03.384Z,23.88
2023-04-17T03:12:29.972Z,23.70
2023-04-17T03:14:56.422Z,22.30
2023-04-17T03:17:22.957Z,23.13
2023-04-17T03:19:49.379Z,23.42
2023-04-17T03:22:15.834Z,23.00
2023-04-17T03:24:42.331Z,23.70
2023-04-17T03:27:09.103Z,24.38
2023-04-17T03:29:35.683Z,22.65
2023-04-17T03:32:02.371Z,23.85
2023-04-17T03:34:29.498Z,24.40
2023-04-17T03:36:55.948Z,25.08
2023-04-17T03:39:22.481Z,25.30
2023-04-17T03:41:48.970Z,24.33
2023-04-17T03:44:17.247Z,24.30
2023-04-17T03:46:43.698Z,24.92
2023-04-17T03:49:10.601Z,24.23
2023-04-17T03:51:37.263Z,24.90
2023-04-17T03:54:03.784Z,23.73
2023-04-17T03:56:30.556Z,25.35
2023-04-17T03:58:57.016Z,24.35
2023-04-17T04:01:23.566Z,24.45
2023-04-17T04:03:50.123Z,24.60
2023-04-17T04:06:20.188Z,24.25
2023-04-17T04:08:46.775Z,25.05
2023-04-17T04:11:13.850Z,25.20
2023-04-17T04:13:40.596Z,24.45
2023-04-17T04:16:07.466Z,23.98
2023-04-17T04:18:34.662Z,25.63
2023-04-17T04:21:01.149Z,26.75
2023-04-17T04:23:28.148Z,26.00
2023-04-17T04:25:56.845Z,25.17
2023-04-17T04:28:24.169Z,25.33
2023-04-17T04:30:51.463Z,27.38
2023-04-17T04:33:20.268Z,25.63
2023-04-17T04:35:51.292Z,25.77
2023-04-17T04:38:17.906Z,25.52
2023-04-17T04:40:49.850Z,27.00
2023-04-17T04:43:16.397Z,27.88
2023-04-17T04:45:42.818Z,27.10
2023-04-17T04:48:09.313Z,27.30
2023-04-17T04:50:35.924Z,26.92
2023-04-17T04:53:02.351Z,28.70
2023-04-17T04:55:30.696Z,28.23
2023-04-17T04:57:57.568Z,27.45
2023-04-17T05:00:24.796Z,26.58
2023-04-17T05:02:51.424Z,26.38
2023-04-17T05:05:18.157Z,28.70
2023-04-17T05:07:44.580Z,27.70
2023-04-17T05:10:11.108Z,27.58
2023-04-17T05:12:37.831Z,27.75
2023-04-17T05:15:04.759Z,28.70
2023-04-17T05:17:31.412Z,27.45
2023-04-17T05:19:57.884Z,28.10
2023-04-17T05:22:24.420Z,27.10
2023-04-17T05:24:50.891Z,26.00
2023-04-17T05:27:17.330Z,25.98
2023-04-17T05:29:43.755Z,25.35
2023-04-17T05:32:10.481Z,26.88
2023-04-17T05:34:36.956Z,26.77
2023-04-17T05:37:03.446Z,26.27
2023-04-17T05:39:30.055Z,27.42
2023-04-17T05:41:56.479Z,26.40
2023-04-17T05:44:22.982Z,26.23
2023-04-17T05:46:49.393Z,26.27
2023-04-17T05:49:15.946Z,25.20
2023-04-17T05:51:42.482Z,27.05
2023-04-17T05:54:08.910Z,26.75
2023-04-17T05:56:35.584Z,27.38
2023-04-17T05:59:02.122Z,32.78
2023-04-17T06:01:30.062Z,27.92
2023-04-17T06:03:57.168Z,28.92
2023-04-17T06:06:24.080Z,26.85
2023-04-17T06:08:52.356Z,26.95
2023-04-17T06:11:19.927Z,25.95
2023-04-17T06:13:46.859Z,26.50
2023-04-17T06:16:13.710Z,26.67
2023-04-17T06:18:41.469Z,25.10
2023-04-17T06:21:08.036Z,26.42
2023-04-17T06:23:34.469Z,26.20
2023-04-17T06:26:01.240Z,25.52
2023-04-17T06:28:27.674Z,25.70
2023-04-17T06:30:54.115Z,25.98
2023-04-17T06:33:21.066Z,26.98
2023-04-17T06:35:47.495Z,25.10
2023-04-17T06:38:13.961Z,25.98
2023-04-17T06:40:40.500Z,24.63
2023-04-17T06:43:07.060Z,32.17
2023-04-17T06:45:34.257Z,25.98
2023-04-17T06:48:00.795Z,24.35
2023-04-17T06:50:28.613Z,25.95
2023-04-17T06:52:55.003Z,24.48
2023-04-17T06:55:21.445Z,23.85
2023-04-17T06:57:47.846Z,23.00
2023-04-17T07:00:14.810Z,21.48
2023-04-17T07:02:41.446Z,23.35
2023-04-17T07:05:08.602Z,22.98
2023-04-17T07:07:35.987Z,22.15
2023-04-17T07:10:03.733Z,21.13
2023-04-17T07:12:30.404Z,18.98
2023-04-17T07:14:56.888Z,18.00
2023-04-17T07:17:23.366Z,16.38
2023-04-17T07:19:49.964Z,16.90
2023-04-17T07:22:16.383Z,18.30
2023-04-17T07:24:42.923Z,18.15
2023-04-17T07:27:09.498Z,19.02
2023-04-17T07:29:36.182Z,18.33
2023-04-17T07:32:03.839Z,18.02
2023-04-17T07:34:31.712Z,16.70
2023-04-17T07:36:58.161Z,16.40
2023-04-17T07:39:26.843Z,17.02
2023-04-17T07:41:54.255Z,16.83
2023-04-17T07:44:20.650Z,17.08
2023-04-17T07:46:47.163Z,16.08
2023-04-17T07:49:13.967Z,16.83
2023-04-17T07:51:42.141Z,17.38
2023-04-17T07:54:08.661Z,16.92
2023-04-17T07:56:36.547Z,17.08
2023-04-17T07:59:03.571Z,17.42
2023-04-17T08:01:30.081Z,18.55
2023-04-17T08:03:58.253Z,17.70
2023-04-17T08:06:25.096Z,18.27
2023-04-17T08:08:52.103Z,17.10
2023-04-17T08:11:18.597Z,17.13
2023-04-17T08:13:45.148Z,17.10
2023-04-17T08:16:11.642Z,17.20
2023-04-17T08:18:39.277Z,17.60
2023-04-17T08:21:05.945Z,17.55
2023-04-17T08:23:32.464Z,18.33
2023-04-17T08:25:58.923Z,18.60
2023-04-17T08:28:25.543Z,18.00
2023-04-17T08:30:52.485Z,17.65
2023-04-17T08:33:19.065Z,17.40
2023-04-17T08:35:45.970Z,18.33
2023-04-17T08:38:14.552Z,17.30
2023-04-17T08:40:42.969Z,18.27
2023-04-17T08:43:19.492Z,17.65
2023-04-17T08:45:55.113Z,17.20
2023-04-17T08:48:23.188Z,17.10
2023-04-17T08:50:51.015Z,17.48
2023-04-17T08:53:18.713Z,17.20
2023-04-17T08:55:46.442Z,16.58
2023-04-17T08:58:13.420Z,17.45
2023-04-17T09:00:42.474Z,17.33
2023-04-17T09:03:13.304Z,16.85
2023-04-17T09:05:43.113Z,16.80
2023-04-17T09:08:11.371Z,16.55
2023-04-17T09:10:40.285Z,17.30
2023-04-17T09:13:08.462Z,16.55
2023-04-17T09:15:36.351Z,16.90
2023-04-17T09:18:03.921Z,16.58
2023-04-17T09:20:30.603Z,16.80
2023-04-17T09:23:02.479Z,17.33
2023-04-17T09:25:30.028Z,17.65
2023-04-17T09:28:14.603Z,16.92
2023-04-17T09:30:42.288Z,18.27
2023-04-17T09:33:10.493Z,18.67
2023-04-17T09:35:40.704Z,18.17
2023-04-17T09:38:07.644Z,18.88
2023-04-17T09:40:41.998Z,20.25
2023-04-17T09:43:10.432Z,20.90
2023-04-17T09:45:41.830Z,21.10
2023-04-17T09:48:10.923Z,20.17
2023-04-17T09:50:38.863Z,19.58
2023-04-17T09:53:07.358Z,19.15
2023-04-17T09:55:36.388Z,17.63
2023-04-17T09:58:05.401Z,18.98
2023-04-17T10:00:32.101Z,17.50
2023-04-17T10:03:00.179Z,20.45
2023-04-17T10:05:29.166Z,20.58
2023-04-17T10:07:56.747Z,20.20
2023-04-17T10:10:25.876Z,19.75
2023-04-17T10:12:56.075Z,21.20
2023-04-17T10:15:25.509Z,20.50
2023-04-17T10:17:52.941Z,21.98
2023-04-17T10:20:20.049Z,21.83
2023-04-17T10:22:56.992Z,22.75
2023-04-17T10:25:25.189Z,23.88
2023-04-17T10:28:02.225Z,23.20
2023-04-17T10:30:49.649Z,23.30
2023-04-17T10:33:16.708Z,25.40
2023-04-17T10:35:43.160Z,26.80
2023-04-17T10:38:11.409Z,30.27
2023-04-17T10:40:39.351Z,30.85
2023-04-17T10:43:19.901Z,30.40
2023-04-17T10:46:06.363Z,32.35
2023-04-17T10:48:38.369Z,30.90
2023-04-17T10:51:23.682Z,31.65
2023-04-17T10:54:00.189Z,29.13
2023-04-17T10:56:35.077Z,28.75
2023-04-17T10:59:03.595Z,29.10
2023-04-17T11:01:39.915Z,28.23
2023-04-17T11:04:07.641Z,28.38
2023-04-17T11:06:39.861Z,28.15
2023-04-17T11:09:11.061Z,28.38
2023-04-17T11:11:44.676Z,30.40
2023-04-17T11:14:15.015Z,30.35
2023-04-17T11:16:43.329Z,30.85
2023-04-17T11:19:11.779Z,31.33
2023-04-17T11:21:52.315Z,31.52
2023-04-17T11:24:30.529Z,29.85
2023-04-17T11:26:59.866Z,29.80
2023-04-17T11:29:27.573Z,29.13
2023-04-17T11:31:56.343Z,29.85
2023-04-17T11:34:24.997Z,30.48
2023-04-17T11:36:53.502Z,27.50
2023-04-17T11:39:21.158Z,28.98
2023-04-17T11:41:47.793Z,26.95
2023-04-17T11:44:15.367Z,27.02
2023-04-17T11:46:42.025Z,27.60
2023-04-17T11:49:10.004Z,26.15
2023-04-17T11:51:36.661Z,26.10
2023-04-17T11:54:03.124Z,24.80
2023-04-17T11:56:30.131Z,25.13
2023-04-17T11:58:58.427Z,26.10
2023-04-17T12:01:26.644Z,25.58
2023-04-17T12:03:55.031Z,25.38
2023-04-17T12:06:22.369Z,24.35
2023-04-17T12:08:51.200Z,22.75
2023-04-17T12:11:27.397Z,23.65
2023-04-17T12:13:55.276Z,23.45
2023-04-17T12:16:24.929Z,21.38
2023-04-17T12:18:51.893Z,20.50
2023-04-17T12:21:21.953Z,20.77
2023-04-17T12:23:48.472Z,20.80
2023-04-17T12:26:15.258Z,19.70
2023-04-17T12:28:42.396Z,19.42
2023-04-17T12:31:09.151Z,18.83
2023-04-17T12:33:35.853Z,18.63
2023-04-17T12:36:04.068Z,16.33
2023-04-17T12:38:31.398Z,17.85
2023-04-17T12:40:58.212Z,17.90
2023-04-17T12:43:24.741Z,16.73
2023-04-17T12:45:52.913Z,18.08
2023-04-17T12:48:19.620Z,17.80
2023-04-17T12:50:46.284Z,17.10
2023-04-17T12:53:14.780Z,12.75
2023-04-17T12:55:43.903Z,14.60
2023-04-17T12:58:12.607Z,13.35
2023-04-17T13:00:40.895Z,12.68
2023-04-17T13:03:07.716Z,13.07
2023-04-17T13:05:34.596Z,12.82
2023-04-17T13:08:01.069Z,11.55
2023-04-17T13:10:27.871Z,12.02
2023-04-17T13:12:54.309Z,10.88
2023-04-17T13:15:20.905Z,8.63
2023-04-17T13:17:47.603Z,8.75
2023-04-17T13:20:14.138Z,8.35
2023-04-17T13:22:40.637Z,8.27
2023-04-17T13:25:07.416Z,8.82
2023-04-17T13:27:33.891Z,9.07
2023-04-17T13:30:00.400Z,8.68
2023-04-17T13:32:26.987Z,8.88
2023-04-17T13:34:53.812Z,7.22
2023-04-17T13:37:20.473Z,9.25
2023-04-17T13:39:47.119Z,8.43
2023-04-17T13:42:15.894Z,11.07
2023-04-17T13:44:42.473Z,8.43
2023-04-17T13:47:09.139Z,8.30
2023-04-17T13:49:35.800Z,9.05
2023-04-17T13:52:03.345Z,8.80
2023-04-17T13:54:29.937Z,7.78
2023-04-17T13:56:56.966Z,8.50
2023-04-17T13:59:23.462Z,8.60
2023-04-17T14:01:49.977Z,8.00
2023-04-17T14:04:16.949Z,8.45
2023-04-17T14:06:49.563Z,7.88
2023-04-17T14:09:17.089Z,7.57
2023-04-17T14:11:43.564Z,8.43
2023-04-17T14:14:12.540Z,8.07
2023-04-17T14:16:40.882Z,8.38
2023-04-17T14:19:14.217Z,8.32
2023-04-17T14:21:41.720Z,8.30
2023-04-17T14:24:08.494Z,8.20
2023-04-17T14:26:35.709Z,7.82
2023-04-17T14:29:02.151Z,8.30
2023-04-17T14:31:28.648Z,9.30
2023-04-17T14:33:55.226Z,10.55
2023-04-17T14:36:21.666Z,10.07
2023-04-17T14:38:51.069Z,8.85
2023-04-17T14:41:18.087Z,10.93
2023-04-17T14:43:44.835Z,10.93
2023-04-17T14:46:11.553Z,10.57
2023-04-17T14:48:48.060Z,9.95
2023-04-17T14:51:22.291Z,9.50
2023-04-17T14:53:49.312Z,9.32
2023-04-17T14:56:16.080Z,8.63
2023-04-17T14:58:43.397Z,8.65
2023-04-17T15:01:10.290Z,18.63
2023-04-17T15:03:37.176Z,10.85
2023-04-17T15:06:04.072Z,14.10
2023-04-17T15:08:31.210Z,12.40
2023-04-17T15:10:58.785Z,11.45
2023-04-17T15:13:25.448Z,13.57
2023-04-17T15:15:51.936Z,12.00
2023-04-17T15:18:18.444Z,17.23
2023-04-17T15:20:46.152Z,16.70
2023-04-17T15:23:12.776Z,11.18
2023-04-17T15:25:39.547Z,13.23
2023-04-17T15:28:08.295Z,15.82
2023-04-17T15:30:34.761Z,11.25
2023-04-17T15:33:01.410Z,13.70
2023-04-17T15:35:27.990Z,11.10
2023-04-17T15:37:54.491Z,15.38
2023-04-17T15:40:20.957Z,11.45
2023-04-17T15:42:47.450Z,12.10
2023-04-17T15:45:14.698Z,11.68
2023-04-17T15:47:41.155Z,11.73
2023-04-17T15:50:08.180Z,13.20
2023-04-17T15:52:34.823Z,12.27
2023-04-17T15:55:01.249Z,12.85
2023-04-17T15:57:27.685Z,13.13
2023-04-17T15:59:54.141Z,18.20
2023-04-17T16:02:21.233Z,19.10
2023-04-17T16:04:47.873Z,18.23
2023-04-17T16:07:15.596Z,22.17
2023-04-17T16:09:44.263Z,14.85
2023-04-17T16:12:10.851Z,13.70
2023-04-17T16:14:37.815Z,13.45
2023-04-17T16:17:04.895Z,14.45
2023-04-17T16:19:32.134Z,13.77
2023-04-17T16:21:58.751Z,14.95
2023-04-17T16:24:26.171Z,14.77
2023-04-17T16:26:54.131Z,13.98
2023-04-17T16:29:21.309Z,14.75
2023-04-17T16:31:47.797Z,14.20
2023-04-17T16:34:14.455Z,13.77
2023-04-17T16:36:45.414Z,12.25
2023-04-17T16:39:12.609Z,12.25
2023-04-17T16:41:39.223Z,10.45
2023-04-17T16:44:05.804Z,9.73
2023-04-17T16:46:48.355Z,8.65
2023-04-17T16:49:18.830Z,8.35
2023-04-17T16:51:45.355Z,7.82
2023-04-17T16:54:12.229Z,8.05
2023-04-17T16:56:39.010Z,7.95
2023-04-17T16:59:05.579Z,7.55
2023-04-17T17:01:32.701Z,7.15
2023-04-17T17:03:59.476Z,7.18
2023-04-17T17:06:26.192Z,7.30
2023-04-17T17:08:55.013Z,6.57
2023-04-17T17:11:22.005Z,6.47
2023-04-17T17:13:49.872Z,7.00
2023-04-17T17:16:17.670Z,6.53
2023-04-17T17:18:44.711Z,6.20
2023-04-17T17:21:11.451Z,6.60
2023-04-17T17:23:38.211Z,6.82
2023-04-17T17:26:05.484Z,6.60
2023-04-17T17:28:32.302Z,6.63
2023-04-17T17:31:03.844Z,6.40
2023-04-17T17:33:32.064Z,7.40
2023-04-17T17:35:58.909Z,6.72
2023-04-17T17:38:28.481Z,6.43
2023-04-17T17:40:56.142Z,6.85
2023-04-17T17:43:22.979Z,6.57
2023-04-17T17:45:49.870Z,8.00
2023-04-17T17:48:18.037Z,21.45
2023-04-17T17:50:44.710Z,13.15
2023-04-17T17:53:11.439Z,9.20
2023-04-17T17:55:38.302Z,8.40
2023-04-17T17:58:06.549Z,8.18
2023-04-17T18:00:33.406Z,7.25
2023-04-17T18:03:00.500Z,7.95
2023-04-17T18:05:27.381Z,7.30
2023-04-17T18:07:53.916Z,7.78
2023-04-17T18:10:20.394Z,7.25
2023-04-17T18:12:46.896Z,7.88
2023-04-17T18:15:13.318Z,7.32
2023-04-17T18:17:39.903Z,7.85
2023-04-17T18:20:07.002Z,7.88
2023-04-17T18:22:33.526Z,7.90
2023-04-17T18:24:59.990Z,8.00
2023-04-17T18:27:27.110Z,8.50
2023-04-17T18:29:53.556Z,8.18
2023-04-17T18:32:20.097Z,8.50
2023-04-17T18:34:49.187Z,8.10
2023-04-17T18:37:17.484Z,8.38
2023-04-17T18:39:44.829Z,8.13
2023-04-17T18:42:11.395Z,8.40
2023-04-17T18:44:37.960Z,7.88
2023-04-17T18:47:04.725Z,7.85
2023-04-17T18:49:31.360Z,7.65
2023-04-17T18:51:57.845Z,7.28
2023-04-17T18:54:24.418Z,7.30
2023-04-17T18:56:50.922Z,7.70
2023-04-17T18:59:19.795Z,8.02
2023-04-17T19:01:46.346Z,7.68
2023-04-17T19:04:13.213Z,7.75
2023-04-17T19:06:39.935Z,8.25
2023-04-17T19:09:06.407Z,8.02
2023-04-17T19:11:33.503Z,7.72
2023-04-17T19:14:00.515Z,8.18
2023-04-17T19:16:27.054Z,8.02
2023-04-17T19:18:53.568Z,7.90
2023-04-17T19:21:20.148Z,7.60
2023-04-17T19:23:47.474Z,8.20
2023-04-17T19:26:15.763Z,7.75
2023-04-17T19:28:42.397Z,8.07
2023-04-17T19:31:08.997Z,7.95
2023-04-17T19:33:35.697Z,7.97
2023-04-17T19:36:03.399Z,7.82
2023-04-17T19:38:31.262Z,7.82
2023-04-17T19:41:17.338Z,7.38
2023-04-17T19:43:45.281Z,7.60
2023-04-17T19:46:13.317Z,6.72
2023-04-17T19:48:41.498Z,7.57
2023-04-17T19:51:08.095Z,7.55
2023-04-17T19:53:35.621Z,7.45
2023-04-17T19:56:03.217Z,7.18
2023-04-17T19:58:30.030Z,7.57
2023-04-17T20:00:58.377Z,7.05
2023-04-17T20:03:29.065Z,7.22
2023-04-17T20:05:57.391Z,7.32
2023-04-17T20:08:24.924Z,7.20
2023-04-17T20:10:51.488Z,7.22
2023-04-17T20:13:17.993Z,7.22
2023-04-17T20:15:44.459Z,7.32
2023-04-17T20:18:12.430Z,9.27
2023-04-17T20:20:39.178Z,13.38
2023-04-17T20:23:06.116Z,20.85
2023-04-17T20:25:32.620Z,45.90
2023-04-17T20:27:59.099Z,41.95
2023-04-17T20:30:25.615Z,47.45
2023-04-17T20:32:52.225Z,52.25
2023-04-17T20:35:23.534Z,23.55
2023-04-17T20:37:51.614Z,25.30
2023-04-17T20:40:18.590Z,31.42
2023-04-17T20:42:45.834Z,12.57
2023-04-17T20:45:12.507Z,18.40
2023-04-17T20:47:49.201Z,51.75
2023-04-17T20:50:22.628Z,36.83
2023-04-17T20:52:49.078Z,14.52
2023-04-17T20:55:18.238Z,23.80
2023-04-17T20:57:44.989Z,36.83
2023-04-17T21:00:12.236Z,11.80
2023-04-17T21:02:38.935Z,11.30
2023-04-17T21:05:07.383Z,14.38
2023-04-17T21:07:34.103Z,14.40
2023-04-17T21:10:02.197Z,10.65
2023-04-17T21:12:28.673Z,9.27
2023-04-17T21:14:55.268Z,9.85
2023-04-17T21:17:22.746Z,11.13
2023-04-17T21:19:49.429Z,11.40
2023-04-17T21:22:15.937Z,7.75
2023-04-17T21:24:42.422Z,10.68
2023-04-17T21:27:08.947Z,9.48
2023-04-17T21:29:35.398Z,14.20
2023-04-17T21:32:01.930Z,10.85
2023-04-17T21:34:28.426Z,12.30
2023-04-17T21:36:54.880Z,11.85
2023-04-17T21:39:21.902Z,11.10
2023-04-17T21:41:48.379Z,20.58
2023-04-17T21:44:15.407Z,9.40
2023-04-17T21:46:45.105Z,14.18
2023-04-17T21:49:11.803Z,8.05
2023-04-17T21:51:38.306Z,9.35
2023-04-17T21:54:04.825Z,8.02
2023-04-17T21:56:31.627Z,9.13
2023-04-17T21:58:58.179Z,7.82
2023-04-17T22:01:24.792Z,7.57
2023-04-17T22:03:51.328Z,8.13
2023-04-17T22:06:17.934Z,8.27
2023-04-17T22:08:44.589Z,8.27
2023-04-17T22:11:11.178Z,8.73
2023-04-17T22:13:37.636Z,8.20
2023-04-17T22:16:04.304Z,8.43
2023-04-17T22:18:30.792Z,8.07
2023-04-17T22:20:57.263Z,7.93
2023-04-17T22:23:23.794Z,8.55
2023-04-17T22:25:51.452Z,7.78
2023-04-17T22:28:17.957Z,8.00
2023-04-17T22:30:44.398Z,8.98
2023-04-17T22:33:10.907Z,8.30
2023-04-17T22:35:37.374Z,9.25
2023-04-17T22:38:04.028Z,8.13
2023-04-17T22:40:30.481Z,8.68
2023-04-17T22:42:56.920Z,8.85
2023-04-17T22:45:23.339Z,8.25
2023-04-17T22:47:49.840Z,8.20
2023-04-17T22:50:17.710Z,8.57
2023-04-17T22:52:44.351Z,8.05
2023-04-17T22:55:11.123Z,8.30
2023-04-17T22:57:37.579Z,8.32
2023-04-17T23:00:04.390Z,8.23
2023-04-17T23:02:30.971Z,8.63
2023-04-17T23:04:57.482Z,8.98
2023-04-17T23:07:24.005Z,8.48
2023-04-17T23:09:50.504Z,8.35
2023-04-17T23:12:16.928Z,8.02
2023-04-17T23:14:45.325Z,8.73
2023-04-17T23:17:12.105Z,8.73
2023-04-17T23:19:38.517Z,8.27
2023-04-17T23:22:05.078Z,8.50
2023-04-17T23:24:34.096Z,8.73
2023-04-17T23:27:01.814Z,8.55
2023-04-17T23:29:28.803Z,8.48
2023-04-17T23:31:55.361Z,8.35
2023-04-17T23:34:21.985Z,8.50
2023-04-17T23:36:48.549Z,8.55
2023-04-17T23:39:15.047Z,8.75
2023-04-17T23:41:42.365Z,8.52
2023-04-17T23:44:09.628Z,8.85
2023-04-17T23:46:36.529Z,9.32
2023-04-17T23:49:03.678Z,9.70
2023-04-17T23:51:31.522Z,8.85
2023-04-17T23:54:00.427Z,9.25
2023-04-17T23:56:29.837Z,8.68
2023-04-17T23:58:56.841Z,9.27
